sensor_id;sensor_type;location;lat;lon;timestamp;pressure;altitude;pressure_sealevel;temperature
84354;BMP280;74538;43.522;1.516;2024-03-06T00:01:44;100647.47;;;21.30
84354;BMP280;74538;43.522;1.516;2024-03-06T00:04:09;100652.09;;;21.29
84354;BMP280;74538;43.522;1.516;2024-03-06T00:06:35;100651.03;;;21.27
84354;BMP280;74538;43.522;1.516;2024-03-06T00:09:01;100652.22;;;21.26
84354;BMP280;74538;43.522;1.516;2024-03-06T00:11:28;100655.81;;;21.23
84354;BMP280;74538;43.522;1.516;2024-03-06T00:13:54;100662.09;;;21.20
84354;BMP280;74538;43.522;1.516;2024-03-06T00:16:20;100661.03;;;21.17
84354;BMP280;74538;43.522;1.516;2024-03-06T00:18:46;100656.06;;;21.15
84354;BMP280;74538;43.522;1.516;2024-03-06T00:21:11;100663.13;;;21.13
84354;BMP280;74538;43.522;1.516;2024-03-06T00:23:37;100665.50;;;21.11
84354;BMP280;74538;43.522;1.516;2024-03-06T00:26:03;100664.44;;;21.08
84354;BMP280;74538;43.522;1.516;2024-03-06T00:28:29;100669.06;;;21.08
84354;BMP280;74538;43.522;1.516;2024-03-06T00:30:55;100664.13;;;21.06
84354;BMP280;74538;43.522;1.516;2024-03-06T00:33:23;100666.53;;;21.04
84354;BMP280;74538;43.522;1.516;2024-03-06T00:35:49;100663.47;;;21.02
84354;BMP280;74538;43.522;1.516;2024-03-06T00:38:15;100663.94;;;21.01
84354;BMP280;74538;43.522;1.516;2024-03-06T00:40:41;100675.16;;;20.99
84354;BMP280;74538;43.522;1.516;2024-03-06T00:43:06;100665.56;;;20.98
84354;BMP280;74538;43.522;1.516;2024-03-06T00:45:32;100671.44;;;20.97
84354;BMP280;74538;43.522;1.516;2024-03-06T00:47:58;100677.22;;;20.95
84354;BMP280;74538;43.522;1.516;2024-03-06T00:50:23;100674.97;;;20.94
84354;BMP280;74538;43.522;1.516;2024-03-06T00:52:49;100671.22;;;20.91
84354;BMP280;74538;43.522;1.516;2024-03-06T00:55:15;100680.50;;;20.90
84354;BMP280;74538;43.522;1.516;2024-03-06T00:57:41;100678.69;;;20.87
84354;BMP280;74538;43.522;1.516;2024-03-06T01:00:07;100669.09;;;20.86
84354;BMP280;74538;43.522;1.516;2024-03-06T01:02:36;100667.16;;;20.87
84354;BMP280;74538;43.522;1.516;2024-03-06T01:05:03;100666.41;;;20.86
84354;BMP280;74538;43.522;1.516;2024-03-06T01:07:29;100664.88;;;20.85
84354;BMP280;74538;43.522;1.516;2024-03-06T01:09:56;100663.84;;;20.83
84354;BMP280;74538;43.522;1.516;2024-03-06T01:12:24;100665.78;;;20.82
84354;BMP280;74538;43.522;1.516;2024-03-06T01:14:50;100665.47;;;20.80
84354;BMP280;74538;43.522;1.516;2024-03-06T01:17:16;100671.28;;;20.78
84354;BMP280;74538;43.522;1.516;2024-03-06T01:19:42;100669.03;;;20.77
84354;BMP280;74538;43.522;1.516;2024-03-06T01:22:11;100672.19;;;20.75
84354;BMP280;74538;43.522;1.516;2024-03-06T01:24:38;100660.66;;;20.75
84354;BMP280;74538;43.522;1.516;2024-03-06T01:27:04;100657.63;;;20.73
84354;BMP280;74538;43.522;1.516;2024-03-06T01:29:30;100650.75;;;20.72
84354;BMP280;74538;43.522;1.516;2024-03-06T01:31:55;100650.75;;;20.72
84354;BMP280;74538;43.522;1.516;2024-03-06T01:34:21;100654.63;;;20.71
84354;BMP280;74538;43.522;1.516;2024-03-06T01:36:47;100656.25;;;20.68
84354;BMP280;74538;43.522;1.516;2024-03-06T01:39:13;100654.03;;;20.67
84354;BMP280;74538;43.522;1.516;2024-03-06T01:41:49;100659.41;;;20.67
84354;BMP280;74538;43.522;1.516;2024-03-06T01:44:16;100653.38;;;20.63
84354;BMP280;74538;43.522;1.516;2024-03-06T01:46:43;100649.19;;;20.62
84354;BMP280;74538;43.522;1.516;2024-03-06T01:49:13;100635.72;;;20.62
84354;BMP280;74538;43.522;1.516;2024-03-06T01:51:45;100640.38;;;20.61
84354;BMP280;74538;43.522;1.516;2024-03-06T01:54:13;100639.59;;;20.61
84354;BMP280;74538;43.522;1.516;2024-03-06T01:56:44;100633.19;;;20.58
84354;BMP280;74538;43.522;1.516;2024-03-06T01:59:12;100628.94;;;20.57
84354;BMP280;74538;43.522;1.516;2024-03-06T02:01:39;100625.84;;;20.59
84354;BMP280;74538;43.522;1.516;2024-03-06T02:04:06;100622.81;;;20.57
84354;BMP280;74538;43.522;1.516;2024-03-06T02:06:35;100619.09;;;20.54
84354;BMP280;74538;43.522;1.516;2024-03-06T02:09:01;100605.31;;;20.52
84354;BMP280;74538;43.522;1.516;2024-03-06T02:11:28;100609.22;;;20.51
84354;BMP280;74538;43.522;1.516;2024-03-06T02:13:55;100605.75;;;20.51
84354;BMP280;74538;43.522;1.516;2024-03-06T02:16:20;100604.56;;;20.52
84354;BMP280;74538;43.522;1.516;2024-03-06T02:18:55;100597.69;;;20.51
84354;BMP280;74538;43.522;1.516;2024-03-06T02:21:22;100589.25;;;20.49
84354;BMP280;74538;43.522;1.516;2024-03-06T02:23:49;100583.13;;;20.48
84354;BMP280;74538;43.522;1.516;2024-03-06T02:26:17;100582.09;;;20.46
84354;BMP280;74538;43.522;1.516;2024-03-06T02:28:49;100588.97;;;20.47
84354;BMP280;74538;43.522;1.516;2024-03-06T02:31:18;100584.03;;;20.45
84354;BMP280;74538;43.522;1.516;2024-03-06T02:33:46;100582.53;;;20.44
84354;BMP280;74538;43.522;1.516;2024-03-06T02:36:13;100572.94;;;20.43
84354;BMP280;74538;43.522;1.516;2024-03-06T02:38:38;100571.88;;;20.40
84354;BMP280;74538;43.522;1.516;2024-03-06T02:41:04;100575.31;;;20.41
84354;BMP280;74538;43.522;1.516;2024-03-06T02:43:32;100582.63;;;20.40
84354;BMP280;74538;43.522;1.516;2024-03-06T02:45:58;100575.75;;;20.39
84354;BMP280;74538;43.522;1.516;2024-03-06T02:48:23;100570.09;;;20.37
84354;BMP280;74538;43.522;1.516;2024-03-06T02:50:49;100575.47;;;20.37
84354;BMP280;74538;43.522;1.516;2024-03-06T02:53:15;100572.44;;;20.35
84354;BMP280;74538;43.522;1.516;2024-03-06T02:55:40;100582.03;;;20.36
84354;BMP280;74538;43.522;1.516;2024-03-06T02:58:06;100574.06;;;20.33
84354;BMP280;74538;43.522;1.516;2024-03-06T03:00:31;100571.06;;;20.31
84354;BMP280;74538;43.522;1.516;2024-03-06T03:02:57;100565.25;;;20.32
84354;BMP280;74538;43.522;1.516;2024-03-06T03:05:23;100559.13;;;20.32
84354;BMP280;74538;43.522;1.516;2024-03-06T03:07:49;100562.22;;;20.30
84354;BMP280;74538;43.522;1.516;2024-03-06T03:10:15;100554.63;;;20.29
84354;BMP280;74538;43.522;1.516;2024-03-06T03:12:41;100551.19;;;20.28
84354;BMP280;74538;43.522;1.516;2024-03-06T03:15:07;100557.72;;;20.27
84354;BMP280;74538;43.522;1.516;2024-03-06T03:17:33;100560.88;;;20.26
84354;BMP280;74538;43.522;1.516;2024-03-06T03:19:59;100566.69;;;20.24
84354;BMP280;74538;43.522;1.516;2024-03-06T03:22:25;100566.38;;;20.22
84354;BMP280;74538;43.522;1.516;2024-03-06T03:24:51;100575.66;;;20.21
84354;BMP280;74538;43.522;1.516;2024-03-06T03:27:16;100572.63;;;20.19
84354;BMP280;74538;43.522;1.516;2024-03-06T03:29:43;100554.97;;;20.18
84354;BMP280;74538;43.522;1.516;2024-03-06T03:32:09;100565.72;;;20.18
84354;BMP280;74538;43.522;1.516;2024-03-06T03:34:35;100556.19;;;20.17
84354;BMP280;74538;43.522;1.516;2024-03-06T03:37:01;100549.72;;;20.15
84354;BMP280;74538;43.522;1.516;2024-03-06T03:39:26;100558.22;;;20.13
84354;BMP280;74538;43.522;1.516;2024-03-06T03:41:53;100554.03;;;20.12
84354;BMP280;74538;43.522;1.516;2024-03-06T03:44:19;100554.03;;;20.12
84354;BMP280;74538;43.522;1.516;2024-03-06T03:46:45;100554.91;;;20.09
84354;BMP280;74538;43.522;1.516;2024-03-06T03:49:11;100558.06;;;20.08
84354;BMP280;74538;43.522;1.516;2024-03-06T03:51:40;100555.78;;;20.06
84354;BMP280;74538;43.522;1.516;2024-03-06T03:54:06;100540.81;;;20.05
84354;BMP280;74538;43.522;1.516;2024-03-06T03:56:32;100545.47;;;20.04
84354;BMP280;74538;43.522;1.516;2024-03-06T03:58:58;100533.97;;;20.04
84354;BMP280;74538;43.522;1.516;2024-03-06T04:01:24;100544.72;;;20.04
84354;BMP280;74538;43.522;1.516;2024-03-06T04:03:50;100527.06;;;20.03
84354;BMP280;74538;43.522;1.516;2024-03-06T04:06:17;100530.94;;;20.02
84354;BMP280;74538;43.522;1.516;2024-03-06T04:08:42;100534.81;;;20.01
84354;BMP280;74538;43.522;1.516;2024-03-06T04:11:08;100545.59;;;20.01
84354;BMP280;74538;43.522;1.516;2024-03-06T04:13:37;100538.72;;;20.00
84354;BMP280;74538;43.522;1.516;2024-03-06T04:16:04;100539.91;;;19.99
84354;BMP280;74538;43.522;1.516;2024-03-06T04:18:31;100546.47;;;19.98
84354;BMP280;74538;43.522;1.516;2024-03-06T04:21:06;100546.47;;;19.98
84354;BMP280;74538;43.522;1.516;2024-03-06T04:23:33;100561.06;;;19.97
84354;BMP280;74538;43.522;1.516;2024-03-06T04:25:59;100560.31;;;19.96
84354;BMP280;74538;43.522;1.516;2024-03-06T04:28:25;100556.59;;;19.94
84354;BMP280;74538;43.522;1.516;2024-03-06T04:30:51;100552.84;;;19.91
84354;BMP280;74538;43.522;1.516;2024-03-06T04:33:17;100551.66;;;19.92
84354;BMP280;74538;43.522;1.516;2024-03-06T04:35:42;100555.09;;;19.93
84354;BMP280;74538;43.522;1.516;2024-03-06T04:38:08;100553.59;;;19.92
84354;BMP280;74538;43.522;1.516;2024-03-06T04:40:34;100560.16;;;19.91
84354;BMP280;74538;43.522;1.516;2024-03-06T04:43:00;100559.81;;;19.89
84354;BMP280;74538;43.522;1.516;2024-03-06T04:45:26;100569.06;;;19.88
84354;BMP280;74538;43.522;1.516;2024-03-06T04:47:53;100566.09;;;19.86
84354;BMP280;74538;43.522;1.516;2024-03-06T04:50:19;100564.59;;;19.85
84354;BMP280;74538;43.522;1.516;2024-03-06T04:52:44;100552.75;;;19.82
84354;BMP280;74538;43.522;1.516;2024-03-06T04:55:10;100552.00;;;19.82
84354;BMP280;74538;43.522;1.516;2024-03-06T04:57:37;100542.44;;;19.81
84354;BMP280;74538;43.522;1.516;2024-03-06T05:00:04;100549.44;;;19.78
84354;BMP280;74538;43.522;1.516;2024-03-06T05:02:36;100543.63;;;19.80
84354;BMP280;74538;43.522;1.516;2024-03-06T05:05:03;100550.19;;;19.79
84354;BMP280;74538;43.522;1.516;2024-03-06T05:07:30;100549.13;;;19.76
84354;BMP280;74538;43.522;1.516;2024-03-06T05:09:56;100551.81;;;19.76
84354;BMP280;74538;43.522;1.516;2024-03-06T05:12:25;100567.19;;;19.76
84354;BMP280;74538;43.522;1.516;2024-03-06T05:14:51;100555.66;;;19.75
84354;BMP280;74538;43.522;1.516;2024-03-06T05:17:17;100552.97;;;19.75
84354;BMP280;74538;43.522;1.516;2024-03-06T05:19:44;100561.16;;;19.72
84354;BMP280;74538;43.522;1.516;2024-03-06T05:22:10;100555.03;;;19.71
84354;BMP280;74538;43.522;1.516;2024-03-06T05:24:39;100555.78;;;19.72
84354;BMP280;74538;43.522;1.516;2024-03-06T05:27:05;100549.22;;;19.73
84354;BMP280;74538;43.522;1.516;2024-03-06T05:29:31;100546.53;;;19.73
84354;BMP280;74538;43.522;1.516;2024-03-06T05:31:57;100553.44;;;19.74
84354;BMP280;74538;43.522;1.516;2024-03-06T05:34:23;100551.94;;;19.73
84354;BMP280;74538;43.522;1.516;2024-03-06T05:36:49;100552.34;;;19.71
84354;BMP280;74538;43.522;1.516;2024-03-06T05:39:15;100557.31;;;19.73
84354;BMP280;74538;43.522;1.516;2024-03-06T05:41:41;100555.50;;;19.70
84354;BMP280;74538;43.522;1.516;2024-03-06T05:44:07;100557.44;;;19.69
84354;BMP280;74538;43.522;1.516;2024-03-06T05:46:33;100562.06;;;19.68
84354;BMP280;74538;43.522;1.516;2024-03-06T05:48:59;100553.63;;;19.66
84354;BMP280;74538;43.522;1.516;2024-03-06T05:51:26;100568.25;;;19.65
84354;BMP280;74538;43.522;1.516;2024-03-06T05:53:53;100557.66;;;19.62
84354;BMP280;74538;43.522;1.516;2024-03-06T05:56:18;100559.59;;;19.61
84354;BMP280;74538;43.522;1.516;2024-03-06T05:58:44;100552.72;;;19.60
84354;BMP280;74538;43.522;1.516;2024-03-06T06:01:17;100552.38;;;19.58
84354;BMP280;74538;43.522;1.516;2024-03-06T06:03:48;100550.88;;;19.57
84354;BMP280;74538;43.522;1.516;2024-03-06T06:06:15;100549.38;;;19.56
84354;BMP280;74538;43.522;1.516;2024-03-06T06:08:41;100541.00;;;19.54
84354;BMP280;74538;43.522;1.516;2024-03-06T06:11:06;100548.72;;;19.52
84354;BMP280;74538;43.522;1.516;2024-03-06T06:13:33;100547.66;;;19.50
84354;BMP280;74538;43.522;1.516;2024-03-06T06:15:59;100545.72;;;19.50
84354;BMP280;74538;43.522;1.516;2024-03-06T06:18:24;100549.59;;;19.49
84354;BMP280;74538;43.522;1.516;2024-03-06T06:20:50;100549.94;;;19.51
84354;BMP280;74538;43.522;1.516;2024-03-06T06:23:16;100555.63;;;19.53
84354;BMP280;74538;43.522;1.516;2024-03-06T06:25:41;100562.84;;;19.56
84354;BMP280;74538;43.522;1.516;2024-03-06T06:28:07;100552.38;;;19.58
84354;BMP280;74538;43.522;1.516;2024-03-06T06:30:35;100560.34;;;19.62
84354;BMP280;74538;43.522;1.516;2024-03-06T06:33:01;100560.66;;;19.64
84354;BMP280;74538;43.522;1.516;2024-03-06T06:35:27;100562.88;;;19.65
84354;BMP280;74538;43.522;1.516;2024-03-06T06:37:53;100553.63;;;19.66
84354;BMP280;74538;43.522;1.516;2024-03-06T06:40:18;100558.19;;;19.70
84354;BMP280;74538;43.522;1.516;2024-03-06T06:42:49;100559.66;;;19.71
84354;BMP280;74538;43.522;1.516;2024-03-06T06:45:19;100561.16;;;19.72
84354;BMP280;74538;43.522;1.516;2024-03-06T06:47:45;100562.25;;;19.74
84354;BMP280;74538;43.522;1.516;2024-03-06T06:50:11;100561.81;;;19.76
84354;BMP280;74538;43.522;1.516;2024-03-06T06:52:38;100560.28;;;19.75
84354;BMP280;74538;43.522;1.516;2024-03-06T06:55:04;100561.81;;;19.76
84354;BMP280;74538;43.522;1.516;2024-03-06T06:57:31;100547.19;;;19.77
84354;BMP280;74538;43.522;1.516;2024-03-06T06:59:58;100556.75;;;19.78
84354;BMP280;74538;43.522;1.516;2024-03-06T07:02:24;100551.38;;;19.78
84354;BMP280;74538;43.522;1.516;2024-03-06T07:04:50;100557.81;;;19.80
84354;BMP280;74538;43.522;1.516;2024-03-06T07:07:16;100546.94;;;19.84
84354;BMP280;74538;43.522;1.516;2024-03-06T07:09:42;100545.63;;;19.88
84354;BMP280;74538;43.522;1.516;2024-03-06T07:12:09;100552.72;;;19.95
84354;BMP280;74538;43.522;1.516;2024-03-06T07:14:34;100552.47;;;20.02
84354;BMP280;74538;43.522;1.516;2024-03-06T07:17:00;100539.50;;;20.10
84354;BMP280;74538;43.522;1.516;2024-03-06T07:19:26;100544.66;;;20.17
84354;BMP280;74538;43.522;1.516;2024-03-06T07:21:51;100547.84;;;20.24
84354;BMP280;74538;43.522;1.516;2024-03-06T07:24:19;100551.03;;;20.32
84354;BMP280;74538;43.522;1.516;2024-03-06T07:26:44;100548.09;;;20.39
84354;BMP280;74538;43.522;1.516;2024-03-06T07:29:10;100556.69;;;20.47
84354;BMP280;74538;43.522;1.516;2024-03-06T07:31:43;100548.34;;;20.54
84354;BMP280;74538;43.522;1.516;2024-03-06T07:34:13;100549.56;;;20.62
84354;BMP280;74538;43.522;1.516;2024-03-06T07:36:40;100543.63;;;20.67
84354;BMP280;74538;43.522;1.516;2024-03-06T07:39:05;100536.91;;;20.71
84354;BMP280;74538;43.522;1.516;2024-03-06T07:41:31;100534.09;;;20.75
84354;BMP280;74538;43.522;1.516;2024-03-06T07:44:00;100547.75;;;20.81
84354;BMP280;74538;43.522;1.516;2024-03-06T07:46:26;100544.44;;;20.86
84354;BMP280;74538;43.522;1.516;2024-03-06T07:48:52;100551.50;;;20.92
84354;BMP280;74538;43.522;1.516;2024-03-06T07:51:18;100552.13;;;20.96
84354;BMP280;74538;43.522;1.516;2024-03-06T07:53:43;100554.53;;;21.03
84354;BMP280;74538;43.522;1.516;2024-03-06T07:56:12;100552.75;;;21.09
84354;BMP280;74538;43.522;1.516;2024-03-06T07:58:38;100551.72;;;21.16
84354;BMP280;74538;43.522;1.516;2024-03-06T08:01:06;100553.38;;;21.23
84354;BMP280;74538;43.522;1.516;2024-03-06T08:03:33;100552.81;;;21.28
84354;BMP280;74538;43.522;1.516;2024-03-06T08:05:59;100553.75;;;21.34
84354;BMP280;74538;43.522;1.516;2024-03-06T08:08:26;100547.72;;;21.39
84354;BMP280;74538;43.522;1.516;2024-03-06T08:10:51;100555.22;;;21.44
84354;BMP280;74538;43.522;1.516;2024-03-06T08:13:17;100553.47;;;21.50
84354;BMP280;74538;43.522;1.516;2024-03-06T08:15:44;100554.34;;;21.56
84354;BMP280;74538;43.522;1.516;2024-03-06T08:18:10;100553.75;;;21.61
84354;BMP280;74538;43.522;1.516;2024-03-06T08:20:36;100558.09;;;21.68
84354;BMP280;74538;43.522;1.516;2024-03-06T08:23:02;100563.66;;;21.73
84354;BMP280;74538;43.522;1.516;2024-03-06T08:25:28;100561.84;;;21.79
84354;BMP280;74538;43.522;1.516;2024-03-06T08:27:54;100570.84;;;21.85
84354;BMP280;74538;43.522;1.516;2024-03-06T08:30:20;100563.63;;;21.91
84354;BMP280;74538;43.522;1.516;2024-03-06T08:32:45;100565.75;;;21.97
84354;BMP280;74538;43.522;1.516;2024-03-06T08:35:12;100563.94;;;22.03
84354;BMP280;74538;43.522;1.516;2024-03-06T08:37:41;100566.03;;;22.08
84354;BMP280;74538;43.522;1.516;2024-03-06T08:40:07;100571.84;;;22.15
84354;BMP280;74538;43.522;1.516;2024-03-06T08:42:35;100565.88;;;22.20
84354;BMP280;74538;43.522;1.516;2024-03-06T08:45:02;100578.31;;;22.27
84354;BMP280;74538;43.522;1.516;2024-03-06T08:47:27;100577.72;;;22.32
84354;BMP280;74538;43.522;1.516;2024-03-06T08:49:53;100585.50;;;22.39
84354;BMP280;74538;43.522;1.516;2024-03-06T08:52:19;100580.19;;;22.45
84354;BMP280;74538;43.522;1.516;2024-03-06T08:54:46;100585.00;;;22.50
84354;BMP280;74538;43.522;1.516;2024-03-06T08:57:12;100580.94;;;22.54
84354;BMP280;74538;43.522;1.516;2024-03-06T08:59:38;100579.09;;;22.60
84354;BMP280;74538;43.522;1.516;2024-03-06T09:04:42;100579.09;;;22.69
84354;BMP280;74538;43.522;1.516;2024-03-06T09:07:09;100573.97;;;22.71
84354;BMP280;74538;43.522;1.516;2024-03-06T09:09:35;100563.47;;;22.74
84354;BMP280;74538;43.522;1.516;2024-03-06T09:12:02;100577.56;;;22.78
84354;BMP280;74538;43.522;1.516;2024-03-06T09:14:30;100583.53;;;22.82
84354;BMP280;74538;43.522;1.516;2024-03-06T09:16:55;100576.47;;;22.84
84354;BMP280;74538;43.522;1.516;2024-03-06T09:19:21;100573.16;;;22.89
84354;BMP280;74538;43.522;1.516;2024-03-06T09:21:48;100579.16;;;22.93
84354;BMP280;74538;43.522;1.516;2024-03-06T09:24:13;100581.97;;;22.99
84354;BMP280;74538;43.522;1.516;2024-03-06T09:26:39;100581.34;;;23.04
84354;BMP280;74538;43.522;1.516;2024-03-06T09:29:05;100581.44;;;23.09
84354;BMP280;74538;43.522;1.516;2024-03-06T09:31:30;100585.78;;;23.16
84354;BMP280;74538;43.522;1.516;2024-03-06T09:33:56;100587.41;;;23.23
84354;BMP280;74538;43.522;1.516;2024-03-06T09:36:22;100592.88;;;23.28
84354;BMP280;74538;43.522;1.516;2024-03-06T09:38:48;100585.66;;;23.34
84354;BMP280;74538;43.522;1.516;2024-03-06T09:43:39;100591.56;;;23.47
84354;BMP280;74538;43.522;1.516;2024-03-06T09:46:07;100590.97;;;23.53
84354;BMP280;74538;43.522;1.516;2024-03-06T09:48:33;100584.44;;;23.59
84354;BMP280;74538;43.522;1.516;2024-03-06T09:51:02;100587.97;;;23.65
84354;BMP280;74538;43.522;1.516;2024-03-06T09:53:28;100591.56;;;23.71
84354;BMP280;74538;43.522;1.516;2024-03-06T09:55:56;100583.53;;;23.77
84354;BMP280;74538;43.522;1.516;2024-03-06T09:58:23;100583.34;;;23.80
84354;BMP280;74538;43.522;1.516;2024-03-06T10:00:50;100590.09;;;23.85
84354;BMP280;74538;43.522;1.516;2024-03-06T10:03:15;100590.34;;;23.87
84354;BMP280;74538;43.522;1.516;2024-03-06T10:05:41;100589.91;;;23.88
84354;BMP280;74538;43.522;1.516;2024-03-06T10:08:09;100583.72;;;23.88
84354;BMP280;74538;43.522;1.516;2024-03-06T10:10:35;100584.47;;;23.88
84354;BMP280;74538;43.522;1.516;2024-03-06T10:13:02;100582.97;;;23.87
84354;BMP280;74538;43.522;1.516;2024-03-06T10:15:27;100587.66;;;23.87
84354;BMP280;74538;43.522;1.516;2024-03-06T10:18:15;100581.03;;;23.88
84354;BMP280;74538;43.522;1.516;2024-03-06T10:20:43;100581.03;;;23.88
84354;BMP280;74538;43.522;1.516;2024-03-06T10:23:09;100581.03;;;23.88
84354;BMP280;74538;43.522;1.516;2024-03-06T10:25:35;100582.22;;;23.87
84354;BMP280;74538;43.522;1.516;2024-03-06T10:28:05;100575.34;;;23.86
84354;BMP280;74538;43.522;1.516;2024-03-06T10:30:33;100579.25;;;23.85
84354;BMP280;74538;43.522;1.516;2024-03-06T10:33:04;100571.59;;;23.83
84354;BMP280;74538;43.522;1.516;2024-03-06T10:35:36;100573.56;;;23.83
84354;BMP280;74538;43.522;1.516;2024-03-06T10:38:04;100569.38;;;23.82
84354;BMP280;74538;43.522;1.516;2024-03-06T10:40:41;100567.84;;;23.81
84354;BMP280;74538;43.522;1.516;2024-03-06T10:43:07;100564.84;;;23.79
84354;BMP280;74538;43.522;1.516;2024-03-06T10:45:47;100561.88;;;23.77
84354;BMP280;74538;43.522;1.516;2024-03-06T10:48:14;100561.13;;;23.76
84354;BMP280;74538;43.522;1.516;2024-03-06T10:50:40;100557.69;;;23.76
84354;BMP280;74538;43.522;1.516;2024-03-06T10:53:17;100556.22;;;23.75
84354;BMP280;74538;43.522;1.516;2024-03-06T10:55:44;100553.19;;;23.73
84354;BMP280;74538;43.522;1.516;2024-03-06T10:58:10;100560.56;;;23.72
84354;BMP280;74538;43.522;1.516;2024-03-06T11:00:38;100548.25;;;23.71
84354;BMP280;74538;43.522;1.516;2024-03-06T11:03:06;100547.50;;;23.71
84354;BMP280;74538;43.522;1.516;2024-03-06T11:05:41;100544.50;;;23.69
84354;BMP280;74538;43.522;1.516;2024-03-06T11:08:08;100541.06;;;23.68
84354;BMP280;74538;43.522;1.516;2024-03-06T11:10:35;100538.34;;;23.68
84354;BMP280;74538;43.522;1.516;2024-03-06T11:13:02;100528.03;;;23.67
84354;BMP280;74538;43.522;1.516;2024-03-06T11:15:31;100530.72;;;23.67
84354;BMP280;74538;43.522;1.516;2024-03-06T11:17:57;100533.09;;;23.65
84354;BMP280;74538;43.522;1.516;2024-03-06T11:20:22;100531.63;;;23.64
84354;BMP280;74538;43.522;1.516;2024-03-06T11:28:19;100535.56;;;23.63
84354;BMP280;74538;43.522;1.516;2024-03-06T11:30:45;100534.81;;;23.62
84354;BMP280;74538;43.522;1.516;2024-03-06T11:33:15;100519.78;;;23.61
84354;BMP280;74538;43.522;1.516;2024-03-06T11:39:07;100519.03;;;23.61
84354;BMP280;74538;43.522;1.516;2024-03-06T11:41:49;100521.72;;;23.61
84354;BMP280;74538;43.522;1.516;2024-03-06T11:44:16;100514.84;;;23.60
84354;BMP280;74538;43.522;1.516;2024-03-06T11:46:43;100507.91;;;23.59
84354;BMP280;74538;43.522;1.516;2024-03-06T11:49:22;100509.44;;;23.60
84354;BMP280;74538;43.522;1.516;2024-03-06T11:51:57;100511.41;;;23.59
84354;BMP280;74538;43.522;1.516;2024-03-06T11:54:24;100499.81;;;23.59
84354;BMP280;74538;43.522;1.516;2024-03-06T11:56:53;100497.09;;;23.59
84354;BMP280;74538;43.522;1.516;2024-03-06T11:59:22;100495.16;;;23.59
84354;BMP280;74538;43.522;1.516;2024-03-06T12:01:48;100488.97;;;23.59
84354;BMP280;74538;43.522;1.516;2024-03-06T12:04:14;100485.09;;;23.60
84354;BMP280;74538;43.522;1.516;2024-03-06T12:06:39;100476.97;;;23.60
84354;BMP280;74538;43.522;1.516;2024-03-06T12:09:05;100480.44;;;23.60
84354;BMP280;74538;43.522;1.516;2024-03-06T12:11:30;100476.97;;;23.60
84354;BMP280;74538;43.522;1.516;2024-03-06T12:13:59;100470.81;;;23.59
84354;BMP280;74538;43.522;1.516;2024-03-06T12:16:24;100473.78;;;23.61
84354;BMP280;74538;43.522;1.516;2024-03-06T12:18:57;100456.81;;;23.61
84354;BMP280;74538;43.522;1.516;2024-03-06T12:21:31;100452.63;;;23.60
84354;BMP280;74538;43.522;1.516;2024-03-06T12:26:29;100454.09;;;23.61
84354;BMP280;74538;43.522;1.516;2024-03-06T12:29:06;100451.38;;;23.61
84354;BMP280;74538;43.522;1.516;2024-03-06T12:31:33;100452.88;;;23.62
84354;BMP280;74538;43.522;1.516;2024-03-06T12:34:00;100448.69;;;23.61
84354;BMP280;74538;43.522;1.516;2024-03-06T12:36:28;100446.72;;;23.61
84354;BMP280;74538;43.522;1.516;2024-03-06T12:38:55;100447.47;;;23.62
84354;BMP280;74538;43.522;1.516;2024-03-06T12:41:21;100439.34;;;23.62
84354;BMP280;74538;43.522;1.516;2024-03-06T12:43:47;100433.50;;;23.63
84354;BMP280;74538;43.522;1.516;2024-03-06T12:46:12;100427.31;;;23.63
84354;BMP280;74538;43.522;1.516;2024-03-06T12:48:38;100425.38;;;23.63
84354;BMP280;74538;43.522;1.516;2024-03-06T12:51:03;100427.31;;;23.63
84354;BMP280;74538;43.522;1.516;2024-03-06T12:53:32;100407.19;;;23.64
84354;BMP280;74538;43.522;1.516;2024-03-06T12:56:01;100413.34;;;23.64
84354;BMP280;74538;43.522;1.516;2024-03-06T12:58:26;100399.81;;;23.64
84354;BMP280;74538;43.522;1.516;2024-03-06T13:00:52;100405.94;;;23.65
84354;BMP280;74538;43.522;1.516;2024-03-06T13:03:19;100403.97;;;23.65
84354;BMP280;74538;43.522;1.516;2024-03-06T13:05:44;100403.97;;;23.65
84354;BMP280;74538;43.522;1.516;2024-03-06T13:08:12;100413.16;;;23.68
84354;BMP280;74538;43.522;1.516;2024-03-06T13:10:40;100402.81;;;23.66
84354;BMP280;74538;43.522;1.516;2024-03-06T13:13:06;100405.50;;;23.66
84354;BMP280;74538;43.522;1.516;2024-03-06T13:15:32;100403.56;;;23.67
84354;BMP280;74538;43.522;1.516;2024-03-06T13:17:59;100395.13;;;23.65
84354;BMP280;74538;43.522;1.516;2024-03-06T13:20:32;100397.09;;;23.64
84354;BMP280;74538;43.522;1.516;2024-03-06T13:22:58;100388.69;;;23.62
84354;BMP280;74538;43.522;1.516;2024-03-06T13:25:24;100387.19;;;23.61
84354;BMP280;74538;43.522;1.516;2024-03-06T13:27:50;100387.69;;;23.60
84354;BMP280;74538;43.522;1.516;2024-03-06T13:30:19;100387.38;;;23.58
84354;BMP280;74538;43.522;1.516;2024-03-06T13:32:44;100380.97;;;23.55
84354;BMP280;74538;43.522;1.516;2024-03-06T13:35:13;100385.38;;;23.53
84354;BMP280;74538;43.522;1.516;2024-03-06T13:37:40;100379.63;;;23.50
84354;BMP280;74538;43.522;1.516;2024-03-06T13:40:07;100379.38;;;23.48
84354;BMP280;74538;43.522;1.516;2024-03-06T13:42:37;100372.47;;;23.47
84354;BMP280;74538;43.522;1.516;2024-03-06T13:45:04;100367.28;;;23.44
84354;BMP280;74538;43.522;1.516;2024-03-06T13:47:30;100361.09;;;23.43
84354;BMP280;74538;43.522;1.516;2024-03-06T13:49:56;100362.03;;;23.40
84354;BMP280;74538;43.522;1.516;2024-03-06T13:52:21;100363.72;;;23.38
84354;BMP280;74538;43.522;1.516;2024-03-06T13:54:49;100362.66;;;23.35
84354;BMP280;74538;43.522;1.516;2024-03-06T13:57:15;100363.16;;;23.34
84354;BMP280;74538;43.522;1.516;2024-03-06T13:59:41;100360.91;;;23.32
84354;BMP280;74538;43.522;1.516;2024-03-06T14:02:07;100352.53;;;23.30
84354;BMP280;74538;43.522;1.516;2024-03-06T14:04:33;100345.63;;;23.29
84354;BMP280;74538;43.522;1.516;2024-03-06T14:07:02;100342.63;;;23.27
84354;BMP280;74538;43.522;1.516;2024-03-06T14:09:28;100332.28;;;23.26
84354;BMP280;74538;43.522;1.516;2024-03-06T14:11:53;100337.41;;;23.24